PWSweather.com
Personal Weather Stations
Station Observations
GEELONGWX1
Bell Post Hill, GeelongAU

Bell Post HillGeelongAU

Lat: -38.101, Lon: 144.326

Elevation: 204

Station Type: Davis Vantage Pro2

http://www.geelongweather.com

High Low Average
Temperature 54.3°F12.4°F 40.3°F4.6°F 45.6°F7.6°F
Dew Point 47.6°F8.7°F 34.1°F1.2°F 39.5°F4.2°F
Winds 4.2 mph NW6.8 mph NW Calm Calm 1.3 mph 2.1 mph
Wind Gusts 6.0 mph9.7 mph -- 2.0 mph3.2 mph
Humidity 80% 78% 79%
Pressure 30.40 in1029.50 in 30.32 in1026.80 in -
Precipitation 0.01 in0.30 in - -
Hour Temp Dew Point Humidity Winds Wind Gusts Pressure Precip Precip Rate Daily Precip Total
12:00 AM 44.9°F7.2°C 38.5°F3.6°C 78% Calm Calm -- 30.39 in1029.1 mb 0.00 in0.0 mm 0.00 in/hr0.0 mm/hr 0.00 in0.0 mm
12:10 AM 44.7°F7.1°C 38.6°F3.7°C 79% Calm Calm -- 30.39 in1029.1 mb 0.00 in0.0 mm 0.00 in/hr0.0 mm/hr 0.00 in0.0 mm
12:20 AM 44.5°F6.9°C 38.4°F3.6°C 79% Calm Calm -- 30.38 in1028.8 mb 0.00 in0.0 mm 0.00 in/hr0.0 mm/hr 0.00 in0.0 mm
12:30 AM 44.4°F6.9°C 38.3°F3.5°C 79% Calm Calm -- 30.38 in1028.8 mb 0.00 in0.0 mm 0.00 in/hr0.0 mm/hr 0.00 in0.0 mm
12:40 AM 44.3°F6.8°C 38.2°F3.4°C 79% Calm Calm -- 30.38 in1028.8 mb 0.00 in0.0 mm 0.00 in/hr0.0 mm/hr 0.00 in0.0 mm
12:50 AM 44.2°F6.8°C 37.8°F3.2°C 78% Calm Calm -- 30.38 in1028.8 mb 0.00 in0.0 mm 0.00 in/hr0.0 mm/hr 0.00 in0.0 mm
01:00 AM 44.1°F6.7°C 38.0°F3.3°C 79% Calm Calm -- 30.38 in1028.8 mb 0.00 in0.0 mm 0.00 in/hr0.0 mm/hr 0.00 in0.0 mm
01:10 AM 43.9°F6.6°C 37.8°F3.2°C 79% Calm Calm -- 30.38 in1028.8 mb 0.00 in0.0 mm 0.00 in/hr0.0 mm/hr 0.00 in0.0 mm
01:20 AM 43.8°F6.6°C 37.7°F3.2°C 79% Calm Calm -- 30.38 in1028.8 mb 0.00 in0.0 mm 0.00 in/hr0.0 mm/hr 0.00 in0.0 mm
01:30 AM 43.6°F6.4°C 37.5°F3.1°C 79% Calm Calm -- 30.38 in1028.8 mb 0.00 in0.0 mm 0.00 in/hr0.0 mm/hr 0.00 in0.0 mm
01:40 AM 43.4°F6.3°C 37.3°F2.9°C 79% Calm Calm -- 30.38 in1028.8 mb 0.00 in0.0 mm 0.00 in/hr0.0 mm/hr 0.00 in0.0 mm
01:50 AM 43.1°F6.2°C 37.1°F2.8°C 79% Calm Calm -- 30.38 in1028.8 mb 0.00 in0.0 mm 0.00 in/hr0.0 mm/hr 0.00 in0.0 mm
02:00 AM 42.9°F6.1°C 36.8°F2.7°C 79% Calm Calm -- 30.38 in1028.8 mb 0.00 in0.0 mm 0.00 in/hr0.0 mm/hr 0.00 in0.0 mm
02:10 AM 42.7°F5.9°C 36.6°F2.6°C 79% Calm Calm -- 30.38 in1028.8 mb 0.00 in0.0 mm 0.00 in/hr0.0 mm/hr 0.00 in0.0 mm
02:20 AM 42.7°F5.9°C 36.6°F2.6°C 79% Calm Calm -- 30.38 in1028.8 mb 0.00 in0.0 mm 0.00 in/hr0.0 mm/hr 0.00 in0.0 mm
02:30 AM 42.5°F5.8°C 36.4°F2.4°C 79% Calm Calm -- 30.38 in1028.8 mb 0.00 in0.0 mm 0.00 in/hr0.0 mm/hr 0.00 in0.0 mm
02:40 AM 42.4°F5.8°C 36.3°F2.4°C 79% Calm Calm -- 30.38 in1028.8 mb 0.00 in0.0 mm 0.00 in/hr0.0 mm/hr 0.00 in0.0 mm
02:50 AM 42.2°F5.7°C 36.2°F2.3°C 79% Calm Calm -- 30.38 in1028.8 mb 0.00 in0.0 mm 0.00 in/hr0.0 mm/hr 0.00 in0.0 mm
03:00 AM 42.0°F5.6°C 36.0°F2.2°C 79% Calm Calm -- 30.38 in1028.8 mb 0.00 in0.0 mm 0.00 in/hr0.0 mm/hr 0.00 in0.0 mm
03:10 AM 41.7°F5.4°C 35.7°F2.1°C 79% Calm Calm -- 30.38 in1028.8 mb 0.00 in0.0 mm 0.00 in/hr0.0 mm/hr 0.00 in0.0 mm
03:20 AM 41.6°F5.3°C 35.6°F2.0°C 79% Calm Calm -- 30.38 in1028.8 mb 0.00 in0.0 mm 0.00 in/hr0.0 mm/hr 0.00 in0.0 mm
03:30 AM 41.7°F5.4°C 35.7°F2.1°C 79% Calm Calm -- 30.38 in1028.8 mb 0.00 in0.0 mm 0.00 in/hr0.0 mm/hr 0.00 in0.0 mm
03:40 AM 41.7°F5.4°C 35.7°F2.1°C 79% Calm Calm -- 30.38 in1028.8 mb 0.00 in0.0 mm 0.00 in/hr0.0 mm/hr 0.00 in0.0 mm
03:50 AM 41.7°F5.4°C 35.7°F2.1°C 79% Calm Calm -- 30.37 in1028.4 mb 0.00 in0.0 mm 0.00 in/hr0.0 mm/hr 0.00 in0.0 mm
04:00 AM 41.6°F5.3°C 35.6°F2.0°C 79% Calm Calm 4.0 mph6.4 kmh 30.37 in1028.4 mb 0.00 in0.0 mm 0.00 in/hr0.0 mm/hr 0.00 in0.0 mm
04:10 AM 41.6°F5.3°C 35.6°F2.0°C 79% 3.8 mph NW6.1 kmh NW 6.0 mph9.7 kmh 30.37 in1028.4 mb 0.00 in0.0 mm 0.00 in/hr0.0 mm/hr 0.00 in0.0 mm
04:20 AM 41.5°F5.3°C 35.5°F1.9°C 79% 4.2 mph NW6.8 kmh NW 6.0 mph9.7 kmh 30.37 in1028.4 mb 0.00 in0.0 mm 0.00 in/hr0.0 mm/hr 0.00 in0.0 mm
04:30 AM 41.6°F5.3°C 35.6°F2.0°C 79% 3.0 mph NW4.8 kmh NW 5.0 mph8.0 kmh 30.37 in1028.4 mb 0.00 in0.0 mm 0.00 in/hr0.0 mm/hr 0.00 in0.0 mm
04:40 AM 41.6°F5.3°C 35.6°F2.0°C 79% 3.9 mph NW6.3 kmh NW 5.0 mph8.0 kmh 30.37 in1028.4 mb 0.00 in0.0 mm 0.00 in/hr0.0 mm/hr 0.00 in0.0 mm
04:50 AM 41.6°F5.3°C 35.6°F2.0°C 79% 3.2 mph NW5.1 kmh NW 4.0 mph6.4 kmh 30.37 in1028.4 mb 0.00 in0.0 mm 0.00 in/hr0.0 mm/hr 0.00 in0.0 mm
05:00 AM 41.5°F5.3°C 35.5°F1.9°C 79% 3.8 mph NW6.1 kmh NW 5.0 mph8.0 kmh 30.37 in1028.4 mb 0.00 in0.0 mm 0.00 in/hr0.0 mm/hr 0.00 in0.0 mm
05:10 AM 41.5°F5.3°C 35.5°F1.9°C 79% 3.3 mph NW5.3 kmh NW 5.0 mph8.0 kmh 30.37 in1028.4 mb 0.00 in0.0 mm 0.00 in/hr0.0 mm/hr 0.00 in0.0 mm
05:20 AM 41.4°F5.2°C 35.4°F1.9°C 79% 2.8 mph NNW4.5 kmh NNW 4.0 mph6.4 kmh 30.37 in1028.4 mb 0.00 in0.0 mm 0.00 in/hr0.0 mm/hr 0.00 in0.0 mm
05:30 AM 41.3°F5.2°C 35.3°F1.8°C 79% 2.6 mph NNW4.2 kmh NNW 4.0 mph6.4 kmh 30.37 in1028.4 mb 0.00 in0.0 mm 0.00 in/hr0.0 mm/hr 0.00 in0.0 mm
05:40 AM 41.2°F5.1°C 35.2°F1.8°C 79% 3.2 mph NNW5.1 kmh NNW 4.0 mph6.4 kmh 30.37 in1028.4 mb 0.00 in0.0 mm 0.00 in/hr0.0 mm/hr 0.00 in0.0 mm
05:50 AM 41.2°F5.1°C 35.2°F1.8°C 79% 2.3 mph NNW3.7 kmh NNW 4.0 mph6.4 kmh 30.37 in1028.4 mb 0.00 in0.0 mm 0.00 in/hr0.0 mm/hr 0.00 in0.0 mm
06:00 AM 41.3°F5.2°C 35.3°F1.8°C 79% 2.7 mph NW4.3 kmh NW 4.0 mph6.4 kmh 30.37 in1028.4 mb 0.00 in0.0 mm 0.00 in/hr0.0 mm/hr 0.00 in0.0 mm
06:10 AM 41.2°F5.1°C 35.5°F1.9°C 80% 2.5 mph NW4.0 kmh NW 4.0 mph6.4 kmh 30.37 in1028.4 mb 0.00 in0.0 mm 0.00 in/hr0.0 mm/hr 0.00 in0.0 mm
06:20 AM 41.0°F5.0°C 35.0°F1.7°C 79% 3.7 mph NW6.0 kmh NW 4.0 mph6.4 kmh 30.38 in1028.8 mb 0.00 in0.0 mm 0.00 in/hr0.0 mm/hr 0.00 in0.0 mm
06:30 AM 40.9°F4.9°C 34.8°F1.6°C 79% 2.4 mph NW3.9 kmh NW 4.0 mph6.4 kmh 30.38 in1028.8 mb 0.00 in0.0 mm 0.00 in/hr0.0 mm/hr 0.00 in0.0 mm
06:40 AM 40.7°F4.8°C 34.7°F1.5°C 79% 2.7 mph NW4.3 kmh NW 4.0 mph6.4 kmh 30.38 in1028.8 mb 0.00 in0.0 mm 0.00 in/hr0.0 mm/hr 0.00 in0.0 mm
06:50 AM 40.5°F4.7°C 34.5°F1.4°C 79% 2.8 mph NW4.5 kmh NW 4.0 mph6.4 kmh 30.38 in1028.8 mb 0.00 in0.0 mm 0.00 in/hr0.0 mm/hr 0.00 in0.0 mm
07:00 AM 40.4°F4.7°C 34.4°F1.3°C 79% 3.1 mph NW5.0 kmh NW 5.0 mph8.0 kmh 30.38 in1028.8 mb 0.00 in0.0 mm 0.00 in/hr0.0 mm/hr 0.00 in0.0 mm
07:10 AM 40.5°F4.7°C 34.5°F1.4°C 79% 2.8 mph NW4.5 kmh NW 4.0 mph6.4 kmh 30.38 in1028.8 mb 0.01 in0.3 mm 0.06 in/hr1.5 mm/hr 0.01 in0.3 mm
07:20 AM 40.5°F4.7°C 34.5°F1.4°C 79% 3.4 mph NW5.5 kmh NW 4.0 mph6.4 kmh 30.38 in1028.8 mb 0.00 in0.0 mm 0.00 in/hr0.0 mm/hr 0.01 in0.3 mm
07:30 AM 40.4°F4.7°C 34.4°F1.3°C 79% 3.6 mph NW5.8 kmh NW 5.0 mph8.0 kmh 30.39 in1029.1 mb 0.00 in0.0 mm 0.00 in/hr0.0 mm/hr 0.01 in0.3 mm
07:40 AM 40.4°F4.7°C 34.4°F1.3°C 79% 2.6 mph NW4.2 kmh NW 4.0 mph6.4 kmh 30.38 in1028.8 mb 0.00 in0.0 mm 0.00 in/hr0.0 mm/hr 0.01 in0.3 mm
07:50 AM 40.3°F4.6°C 34.3°F1.3°C 79% 3.4 mph NW5.5 kmh NW 5.0 mph8.0 kmh 30.39 in1029.1 mb 0.00 in0.0 mm 0.00 in/hr0.0 mm/hr 0.01 in0.3 mm
08:00 AM 40.3°F4.6°C 34.3°F1.3°C 79% 2.6 mph NW4.2 kmh NW 4.0 mph6.4 kmh 30.39 in1029.1 mb 0.00 in0.0 mm 0.00 in/hr0.0 mm/hr 0.01 in0.3 mm
08:10 AM 40.4°F4.7°C 34.1°F1.2°C 78% 1.2 mph NW1.9 kmh NW 4.0 mph6.4 kmh 30.39 in1029.1 mb 0.00 in0.0 mm 0.00 in/hr0.0 mm/hr 0.01 in0.3 mm
08:20 AM 40.5°F4.7°C 34.2°F1.2°C 78% 3.5 mph NW5.6 kmh NW 5.0 mph8.0 kmh 30.38 in1028.8 mb 0.00 in0.0 mm 0.00 in/hr0.0 mm/hr 0.01 in0.3 mm
08:30 AM 40.8°F4.9°C 34.5°F1.4°C 78% 3.0 mph NW4.8 kmh NW 5.0 mph8.0 kmh 30.38 in1028.8 mb 0.00 in0.0 mm 0.00 in/hr0.0 mm/hr 0.01 in0.3 mm
08:40 AM 41.1°F5.1°C 34.8°F1.6°C 78% 2.7 mph NW4.3 kmh NW 5.0 mph8.0 kmh 30.38 in1028.8 mb 0.00 in0.0 mm 0.00 in/hr0.0 mm/hr 0.01 in0.3 mm
08:50 AM 41.3°F5.2°C 35.0°F1.7°C 78% Calm Calm -- 30.39 in1029.1 mb 0.00 in0.0 mm 0.00 in/hr0.0 mm/hr 0.01 in0.3 mm
09:00 AM 41.8°F5.4°C 35.4°F1.9°C 78% Calm Calm -- 30.39 in1029.1 mb 0.00 in0.0 mm 0.00 in/hr0.0 mm/hr 0.01 in0.3 mm
09:10 AM 42.0°F5.6°C 35.7°F2.1°C 78% 2.7 mph NNW4.3 kmh NNW 4.0 mph6.4 kmh 30.39 in1029.1 mb 0.00 in0.0 mm 0.00 in/hr0.0 mm/hr 0.01 in0.3 mm
09:20 AM 42.4°F5.8°C 36.0°F2.2°C 78% 3.2 mph NNW5.1 kmh NNW 5.0 mph8.0 kmh 30.39 in1029.1 mb 0.00 in0.0 mm 0.00 in/hr0.0 mm/hr 0.01 in0.3 mm
09:30 AM 43.1°F6.2°C 36.7°F2.6°C 78% 3.1 mph NW5.0 kmh NW 4.0 mph6.4 kmh 30.39 in1029.1 mb 0.00 in0.0 mm 0.00 in/hr0.0 mm/hr 0.01 in0.3 mm
09:40 AM 43.9°F6.6°C 37.5°F3.1°C 78% 2.4 mph NNW3.9 kmh NNW 4.0 mph6.4 kmh 30.40 in1029.5 mb 0.00 in0.0 mm 0.00 in/hr0.0 mm/hr 0.01 in0.3 mm
09:50 AM 44.2°F6.8°C 38.1°F3.4°C 79% 2.5 mph NNW4.0 kmh NNW 4.0 mph6.4 kmh 30.39 in1029.1 mb 0.00 in0.0 mm 0.00 in/hr0.0 mm/hr 0.01 in0.3 mm
10:00 AM 44.7°F7.1°C 38.6°F3.7°C 79% 3.3 mph NW5.3 kmh NW 6.0 mph9.7 kmh 30.39 in1029.1 mb 0.00 in0.0 mm 0.00 in/hr0.0 mm/hr 0.01 in0.3 mm
10:10 AM 45.3°F7.4°C 39.2°F4.0°C 79% 4.2 mph NW6.8 kmh NW 6.0 mph9.7 kmh 30.39 in1029.1 mb 0.00 in0.0 mm 0.00 in/hr0.0 mm/hr 0.01 in0.3 mm
10:20 AM 45.8°F7.7°C 39.6°F4.2°C 79% 4.1 mph NW6.6 kmh NW 5.0 mph8.0 kmh 30.39 in1029.1 mb 0.00 in0.0 mm 0.00 in/hr0.0 mm/hr 0.01 in0.3 mm
10:30 AM 47.1°F8.4°C 41.0°F5.0°C 79% 2.7 mph NW4.3 kmh NW 5.0 mph8.0 kmh 30.39 in1029.1 mb 0.00 in0.0 mm 0.00 in/hr0.0 mm/hr 0.01 in0.3 mm
10:40 AM 47.9°F8.8°C 41.7°F5.4°C 79% 4.2 mph NW6.8 kmh NW 5.0 mph8.0 kmh 30.39 in1029.1 mb 0.00 in0.0 mm 0.00 in/hr0.0 mm/hr 0.01 in0.3 mm
10:50 AM 48.2°F9.0°C 42.0°F5.6°C 79% 2.3 mph NW3.7 kmh NW 4.0 mph6.4 kmh 30.39 in1029.1 mb 0.00 in0.0 mm 0.00 in/hr0.0 mm/hr 0.01 in0.3 mm
11:00 AM 48.5°F9.2°C 42.2°F5.7°C 79% Calm Calm -- 30.39 in1029.1 mb 0.00 in0.0 mm 0.00 in/hr0.0 mm/hr 0.01 in0.3 mm
11:10 AM 49.1°F9.5°C 42.9°F6.1°C 79% Calm Calm -- 30.39 in1029.1 mb 0.00 in0.0 mm 0.00 in/hr0.0 mm/hr 0.01 in0.3 mm
11:20 AM 49.5°F9.7°C 43.6°F6.4°C 80% Calm Calm -- 30.38 in1028.8 mb 0.00 in0.0 mm 0.00 in/hr0.0 mm/hr 0.01 in0.3 mm
11:30 AM 49.6°F9.8°C 43.7°F6.5°C 80% Calm Calm -- 30.38 in1028.8 mb 0.00 in0.0 mm 0.00 in/hr0.0 mm/hr 0.01 in0.3 mm
11:40 AM 50.4°F10.2°C 44.5°F6.9°C 80% Calm Calm -- 30.38 in1028.8 mb 0.00 in0.0 mm 0.00 in/hr0.0 mm/hr 0.01 in0.3 mm
11:50 AM 50.7°F10.4°C 44.8°F7.1°C 80% Calm Calm -- 30.37 in1028.4 mb 0.00 in0.0 mm 0.00 in/hr0.0 mm/hr 0.01 in0.3 mm
12:00 PM 50.8°F10.4°C 44.9°F7.2°C 80% Calm Calm -- 30.37 in1028.4 mb 0.00 in0.0 mm 0.00 in/hr0.0 mm/hr 0.01 in0.3 mm
12:10 PM 51.7°F10.9°C 45.7°F7.6°C 80% Calm Calm -- 30.36 in1028.1 mb 0.00 in0.0 mm 0.00 in/hr0.0 mm/hr 0.01 in0.3 mm
12:20 PM 52.2°F11.2°C 46.2°F7.9°C 80% Calm Calm -- 30.36 in1028.1 mb 0.00 in0.0 mm 0.00 in/hr0.0 mm/hr 0.01 in0.3 mm
12:30 PM 52.1°F11.2°C 46.1°F7.8°C 80% 0.1 mph S0.2 kmh S 3.0 mph4.8 kmh 30.35 in1027.8 mb 0.00 in0.0 mm 0.00 in/hr0.0 mm/hr 0.01 in0.3 mm
12:40 PM 52.0°F11.1°C 46.1°F7.8°C 80% Calm Calm -- 30.35 in1027.8 mb 0.00 in0.0 mm 0.00 in/hr0.0 mm/hr 0.01 in0.3 mm
12:50 PM 52.4°F11.3°C 46.4°F8.0°C 80% 0.6 mph S1.0 kmh S 3.0 mph4.8 kmh 30.34 in1027.4 mb 0.00 in0.0 mm 0.00 in/hr0.0 mm/hr 0.01 in0.3 mm
01:00 PM 52.2°F11.2°C 45.9°F7.7°C 79% Calm Calm -- 30.34 in1027.4 mb 0.00 in0.0 mm 0.00 in/hr0.0 mm/hr 0.01 in0.3 mm
01:10 PM 52.7°F11.5°C 46.4°F8.0°C 79% Calm Calm 2.0 mph3.2 kmh 30.34 in1027.4 mb 0.00 in0.0 mm 0.00 in/hr0.0 mm/hr 0.01 in0.3 mm
01:20 PM 52.9°F11.6°C 46.6°F8.1°C 79% 1.1 mph SE1.8 kmh SE 3.0 mph4.8 kmh 30.34 in1027.4 mb 0.00 in0.0 mm 0.00 in/hr0.0 mm/hr 0.01 in0.3 mm
01:30 PM 53.4°F11.9°C 47.0°F8.3°C 79% Calm Calm -- 30.33 in1027.1 mb 0.00 in0.0 mm 0.00 in/hr0.0 mm/hr 0.01 in0.3 mm
01:40 PM 54.3°F12.4°C 47.6°F8.7°C 78% Calm Calm -- 30.33 in1027.1 mb 0.00 in0.0 mm 0.00 in/hr0.0 mm/hr 0.01 in0.3 mm
01:50 PM 53.7°F12.1°C 47.3°F8.5°C 79% 2.5 mph SE4.0 kmh SE 3.0 mph4.8 kmh 30.33 in1027.1 mb 0.00 in0.0 mm 0.00 in/hr0.0 mm/hr 0.01 in0.3 mm
02:00 PM 53.9°F12.2°C 47.5°F8.6°C 79% 0.2 mph SSE0.3 kmh SSE 3.0 mph4.8 kmh 30.32 in1026.8 mb 0.00 in0.0 mm 0.00 in/hr0.0 mm/hr 0.01 in0.3 mm
02:10 PM 53.7°F12.1°C 47.3°F8.5°C 79% 1.9 mph SSE3.1 kmh SSE 3.0 mph4.8 kmh 30.32 in1026.8 mb 0.00 in0.0 mm 0.00 in/hr0.0 mm/hr 0.01 in0.3 mm
02:20 PM 53.3°F11.8°C 47.0°F8.3°C 79% 1.6 mph SSE2.6 kmh SSE 3.0 mph4.8 kmh 30.32 in1026.8 mb 0.00 in0.0 mm 0.00 in/hr0.0 mm/hr 0.01 in0.3 mm
02:30 PM 53.1°F11.7°C 46.8°F8.2°C 79% 2.6 mph SSE4.2 kmh SSE 5.0 mph8.0 kmh 30.32 in1026.8 mb 0.00 in0.0 mm 0.00 in/hr0.0 mm/hr 0.01 in0.3 mm
02:40 PM 52.9°F11.6°C 46.5°F8.1°C 79% 2.2 mph S3.5 kmh S 4.0 mph6.4 kmh 30.32 in1026.8 mb 0.00 in0.0 mm 0.00 in/hr0.0 mm/hr 0.01 in0.3 mm
02:50 PM 52.8°F11.6°C 46.5°F8.1°C 79% 1.5 mph S2.4 kmh S 2.0 mph3.2 kmh 30.32 in1026.8 mb 0.00 in0.0 mm 0.00 in/hr0.0 mm/hr 0.01 in0.3 mm
03:00 PM 52.9°F11.6°C 46.6°F8.1°C 79% 1.5 mph S2.4 kmh S 3.0 mph4.8 kmh 30.32 in1026.8 mb 0.00 in0.0 mm 0.00 in/hr0.0 mm/hr 0.01 in0.3 mm
03:10 PM 52.3°F11.3°C 45.9°F7.7°C 79% 3.0 mph S4.8 kmh S 3.0 mph4.8 kmh 30.32 in1026.8 mb 0.00 in0.0 mm 0.00 in/hr0.0 mm/hr 0.01 in0.3 mm
03:20 PM 52.4°F11.3°C 46.1°F7.8°C 79% 2.1 mph S3.4 kmh S 4.0 mph6.4 kmh 30.32 in1026.8 mb 0.00 in0.0 mm 0.00 in/hr0.0 mm/hr 0.01 in0.3 mm
03:30 PM 52.3°F11.3°C 46.0°F7.8°C 79% 0.7 mph SSE1.1 kmh SSE 3.0 mph4.8 kmh 30.32 in1026.8 mb 0.00 in0.0 mm 0.00 in/hr0.0 mm/hr 0.01 in0.3 mm
03:40 PM 51.9°F11.1°C 45.6°F7.6°C 79% Calm Calm -- 30.32 in1026.8 mb 0.00 in0.0 mm 0.00 in/hr0.0 mm/hr 0.01 in0.3 mm
03:50 PM 51.8°F11.0°C 45.8°F7.7°C 80% 1.4 mph SSE2.3 kmh SSE 2.0 mph3.2 kmh 30.33 in1027.1 mb 0.00 in0.0 mm 0.00 in/hr0.0 mm/hr 0.01 in0.3 mm
04:00 PM 51.6°F10.9°C 45.6°F7.6°C 80% 1.6 mph SSE2.6 kmh SSE 4.0 mph6.4 kmh 30.33 in1027.1 mb 0.00 in0.0 mm 0.00 in/hr0.0 mm/hr 0.01 in0.3 mm
04:10 PM 51.6°F10.9°C 45.6°F7.6°C 80% Calm Calm -- 30.33 in1027.1 mb 0.00 in0.0 mm 0.00 in/hr0.0 mm/hr 0.01 in0.3 mm
04:20 PM 51.3°F10.7°C 45.0°F7.2°C 79% 0.6 mph SSE1.0 kmh SSE -- 30.33 in1027.1 mb 0.00 in0.0 mm 0.00 in/hr0.0 mm/hr 0.01 in0.3 mm
04:30 PM 51.1°F10.6°C 45.1°F7.3°C 80% 0.9 mph SSE1.4 kmh SSE 1.0 mph1.6 kmh 30.33 in1027.1 mb 0.00 in0.0 mm 0.00 in/hr0.0 mm/hr 0.01 in0.3 mm
04:40 PM 50.9°F10.5°C 45.0°F7.2°C 80% Calm Calm -- 30.33 in1027.1 mb 0.00 in0.0 mm 0.00 in/hr0.0 mm/hr 0.01 in0.3 mm
04:50 PM 50.8°F10.4°C 44.9°F7.2°C 80% Calm Calm -- 30.33 in1027.1 mb 0.00 in0.0 mm 0.00 in/hr0.0 mm/hr 0.01 in0.3 mm
05:00 PM 50.4°F10.2°C 44.5°F6.9°C 80% Calm Calm -- 30.33 in1027.1 mb 0.00 in0.0 mm 0.00 in/hr0.0 mm/hr 0.01 in0.3 mm
05:10 PM 49.9°F9.9°C 44.0°F6.7°C 80% Calm Calm -- 30.33 in1027.1 mb 0.00 in0.0 mm 0.00 in/hr0.0 mm/hr 0.01 in0.3 mm
05:20 PM 49.4°F9.7°C 43.5°F6.4°C 80% Calm Calm -- 30.33 in1027.1 mb 0.00 in0.0 mm 0.00 in/hr0.0 mm/hr 0.01 in0.3 mm
05:30 PM 49.1°F9.5°C 43.2°F6.2°C 80% Calm Calm -- 30.33 in1027.1 mb 0.00 in0.0 mm 0.00 in/hr0.0 mm/hr 0.01 in0.3 mm
05:40 PM 48.7°F9.3°C 42.8°F6.0°C 80% Calm Calm -- 30.33 in1027.1 mb 0.00 in0.0 mm 0.00 in/hr0.0 mm/hr 0.01 in0.3 mm
05:50 PM 48.1°F8.9°C 41.9°F5.5°C 79% Calm Calm -- 30.33 in1027.1 mb 0.00 in0.0 mm 0.00 in/hr0.0 mm/hr 0.01 in0.3 mm
06:00 PM 47.8°F8.8°C 41.6°F5.3°C 79% Calm Calm -- 30.33 in1027.1 mb 0.00 in0.0 mm 0.00 in/hr0.0 mm/hr 0.01 in0.3 mm
06:10 PM 47.6°F8.7°C 41.4°F5.2°C 79% Calm Calm -- 30.33 in1027.1 mb 0.00 in0.0 mm 0.00 in/hr0.0 mm/hr 0.01 in0.3 mm
06:20 PM 47.3°F8.5°C 40.8°F4.9°C 78% Calm Calm -- 30.34 in1027.4 mb 0.00 in0.0 mm 0.00 in/hr0.0 mm/hr 0.01 in0.3 mm
06:30 PM 46.9°F8.3°C 40.4°F4.7°C 78% Calm Calm -- 30.34 in1027.4 mb 0.00 in0.0 mm 0.00 in/hr0.0 mm/hr 0.01 in0.3 mm
06:40 PM 46.9°F8.3°C 40.4°F4.7°C 78% Calm Calm -- 30.34 in1027.4 mb 0.00 in0.0 mm 0.00 in/hr0.0 mm/hr 0.01 in0.3 mm
06:50 PM 46.7°F8.2°C 40.2°F4.6°C 78% Calm Calm -- 30.34 in1027.4 mb 0.00 in0.0 mm 0.00 in/hr0.0 mm/hr 0.01 in0.3 mm
07:00 PM 46.5°F8.1°C 40.0°F4.4°C 78% Calm Calm -- 30.34 in1027.4 mb 0.00 in0.0 mm 0.00 in/hr0.0 mm/hr 0.01 in0.3 mm
07:10 PM 46.2°F7.9°C 39.7°F4.3°C 78% Calm Calm -- 30.34 in1027.4 mb 0.00 in0.0 mm 0.00 in/hr0.0 mm/hr 0.01 in0.3 mm
07:20 PM 46.0°F7.8°C 39.9°F4.4°C 79% Calm Calm -- 30.34 in1027.4 mb 0.00 in0.0 mm 0.00 in/hr0.0 mm/hr 0.01 in0.3 mm
07:30 PM 45.9°F7.7°C 39.8°F4.3°C 79% Calm Calm -- 30.34 in1027.4 mb 0.00 in0.0 mm 0.00 in/hr0.0 mm/hr 0.01 in0.3 mm
07:40 PM 45.7°F7.6°C 39.2°F4.0°C 78% Calm Calm -- 30.35 in1027.8 mb 0.00 in0.0 mm 0.00 in/hr0.0 mm/hr 0.01 in0.3 mm
07:50 PM 45.6°F7.6°C 39.1°F3.9°C 78% Calm Calm -- 30.34 in1027.4 mb 0.00 in0.0 mm 0.00 in/hr0.0 mm/hr 0.01 in0.3 mm
08:00 PM 45.6°F7.6°C 39.1°F3.9°C 78% Calm Calm -- 30.34 in1027.4 mb 0.00 in0.0 mm 0.00 in/hr0.0 mm/hr 0.01 in0.3 mm
08:10 PM 45.4°F7.4°C 39.3°F4.1°C 79% Calm Calm -- 30.35 in1027.8 mb 0.00 in0.0 mm 0.00 in/hr0.0 mm/hr 0.01 in0.3 mm
08:20 PM 45.2°F7.3°C 39.1°F3.9°C 79% Calm Calm -- 30.35 in1027.8 mb 0.00 in0.0 mm 0.00 in/hr0.0 mm/hr 0.01 in0.3 mm
08:30 PM 45.0°F7.2°C 38.6°F3.7°C 78% Calm Calm -- 30.35 in1027.8 mb 0.00 in0.0 mm 0.00 in/hr0.0 mm/hr 0.01 in0.3 mm
08:40 PM 44.8°F7.1°C 38.7°F3.7°C 79% Calm Calm -- 30.35 in1027.8 mb 0.00 in0.0 mm 0.00 in/hr0.0 mm/hr 0.01 in0.3 mm
08:50 PM 44.6°F7.0°C 38.5°F3.6°C 79% Calm Calm -- 30.35 in1027.8 mb 0.00 in0.0 mm 0.00 in/hr0.0 mm/hr 0.01 in0.3 mm
09:00 PM 44.5°F6.9°C 38.4°F3.6°C 79% Calm Calm -- 30.35 in1027.8 mb 0.00 in0.0 mm 0.00 in/hr0.0 mm/hr 0.01 in0.3 mm
09:10 PM 44.1°F6.7°C 38.0°F3.3°C 79% Calm Calm -- 30.35 in1027.8 mb 0.00 in0.0 mm 0.00 in/hr0.0 mm/hr 0.01 in0.3 mm
09:20 PM 43.7°F6.5°C 37.6°F3.1°C 79% Calm Calm -- 30.35 in1027.8 mb 0.00 in0.0 mm 0.00 in/hr0.0 mm/hr 0.01 in0.3 mm
09:30 PM 43.4°F6.3°C 37.3°F2.9°C 79% Calm Calm -- 30.35 in1027.8 mb 0.00 in0.0 mm 0.00 in/hr0.0 mm/hr 0.01 in0.3 mm
09:40 PM 43.2°F6.2°C 37.1°F2.8°C 79% Calm Calm -- 30.35 in1027.8 mb 0.00 in0.0 mm 0.00 in/hr0.0 mm/hr 0.01 in0.3 mm
09:50 PM 43.1°F6.2°C 37.0°F2.8°C 79% 3.0 mph NW4.8 kmh NW 4.0 mph6.4 kmh 30.36 in1028.1 mb 0.00 in0.0 mm 0.00 in/hr0.0 mm/hr 0.01 in0.3 mm
10:00 PM 42.9°F6.1°C 36.8°F2.7°C 79% 2.5 mph NW4.0 kmh NW 4.0 mph6.4 kmh 30.36 in1028.1 mb 0.00 in0.0 mm 0.00 in/hr0.0 mm/hr 0.01 in0.3 mm
10:10 PM 42.7°F5.9°C 36.6°F2.6°C 79% 2.6 mph NW4.2 kmh NW 4.0 mph6.4 kmh 30.36 in1028.1 mb 0.00 in0.0 mm 0.00 in/hr0.0 mm/hr 0.01 in0.3 mm
10:20 PM 42.5°F5.8°C 36.4°F2.4°C 79% 3.1 mph NW5.0 kmh NW 4.0 mph6.4 kmh 30.36 in1028.1 mb 0.00 in0.0 mm 0.00 in/hr0.0 mm/hr 0.01 in0.3 mm
10:30 PM 42.6°F5.9°C 36.5°F2.5°C 79% 3.0 mph NW4.8 kmh NW 5.0 mph8.0 kmh 30.36 in1028.1 mb 0.00 in0.0 mm 0.00 in/hr0.0 mm/hr 0.01 in0.3 mm
10:40 PM 42.7°F5.9°C 36.6°F2.6°C 79% 3.0 mph NW4.8 kmh NW 4.0 mph6.4 kmh 30.36 in1028.1 mb 0.00 in0.0 mm 0.00 in/hr0.0 mm/hr 0.01 in0.3 mm
10:50 PM 42.8°F6.0°C 36.7°F2.6°C 79% 2.5 mph NW4.0 kmh NW 4.0 mph6.4 kmh 30.36 in1028.1 mb 0.00 in0.0 mm 0.00 in/hr0.0 mm/hr 0.01 in0.3 mm
11:00 PM 42.7°F5.9°C 36.6°F2.6°C 79% 3.0 mph NW4.8 kmh NW 4.0 mph6.4 kmh 30.36 in1028.1 mb 0.00 in0.0 mm 0.00 in/hr0.0 mm/hr 0.01 in0.3 mm
11:10 PM 42.7°F5.9°C 36.6°F2.6°C 79% 2.2 mph NW3.5 kmh NW 3.0 mph4.8 kmh 30.36 in1028.1 mb 0.00 in0.0 mm 0.00 in/hr0.0 mm/hr 0.01 in0.3 mm
11:20 PM 42.7°F5.9°C 36.6°F2.6°C 79% 2.8 mph NW4.5 kmh NW 4.0 mph6.4 kmh 30.36 in1028.1 mb 0.00 in0.0 mm 0.00 in/hr0.0 mm/hr 0.01 in0.3 mm
11:30 PM 42.6°F5.9°C 36.5°F2.5°C 79% 2.3 mph NW3.7 kmh NW 3.0 mph4.8 kmh 30.36 in1028.1 mb 0.00 in0.0 mm 0.00 in/hr0.0 mm/hr 0.01 in0.3 mm
11:40 PM 42.5°F5.8°C 36.4°F2.4°C 79% 2.5 mph NW4.0 kmh NW 3.0 mph4.8 kmh 30.36 in1028.1 mb 0.00 in0.0 mm 0.00 in/hr0.0 mm/hr 0.01 in0.3 mm
11:50 PM 42.4°F5.8°C 36.3°F2.4°C 79% 2.0 mph NW3.2 kmh NW 3.0 mph4.8 kmh 30.36 in1028.1 mb 0.00 in0.0 mm 0.00 in/hr0.0 mm/hr 0.01 in0.3 mm